sensor_id;sensor_type;location;lat;lon;timestamp;pressure;altitude;pressure_sealevel;temperature;humidity
73106;BME280;61559;50.476;15.588;2022-09-21T00:02:27;98229.70;;;2.78;82.27
73106;BME280;61559;50.476;15.588;2022-09-21T00:04:58;98234.05;;;2.77;82.24
73106;BME280;61559;50.476;15.588;2022-09-21T00:07:29;98239.04;;;2.73;82.25
73106;BME280;61559;50.476;15.588;2022-09-21T00:10:00;98240.13;;;2.70;82.42
73106;BME280;61559;50.476;15.588;2022-09-21T00:12:31;98239.59;;;2.67;82.21
73106;BME280;61559;50.476;15.588;2022-09-21T00:15:02;98238.91;;;2.66;82.10
73106;BME280;61559;50.476;15.588;2022-09-21T00:17:33;98241.09;;;2.65;81.91
73106;BME280;61559;50.476;15.588;2022-09-21T00:20:06;98242.24;;;2.64;81.95
73106;BME280;61559;50.476;15.588;2022-09-21T00:22:37;98241.83;;;2.63;82.00
73106;BME280;61559;50.476;15.588;2022-09-21T00:25:08;98243.80;;;2.62;82.27
73106;BME280;61559;50.476;15.588;2022-09-21T00:27:39;98242.42;;;2.62;82.28
73106;BME280;61559;50.476;15.588;2022-09-21T00:30:12;98244.61;;;2.60;81.97
73106;BME280;61559;50.476;15.588;2022-09-21T00:32:43;98240.06;;;2.57;81.91
73106;BME280;61559;50.476;15.588;2022-09-21T00:35:15;98237.36;;;2.57;82.27
73106;BME280;61559;50.476;15.588;2022-09-21T00:37:46;98237.43;;;2.55;82.12
73106;BME280;61559;50.476;15.588;2022-09-21T00:40:17;98239.08;;;2.48;81.93
73106;BME280;61559;50.476;15.588;2022-09-21T00:42:48;98239.23;;;2.44;82.30
73106;BME280;61559;50.476;15.588;2022-09-21T00:45:20;98242.94;;;2.45;82.33
73106;BME280;61559;50.476;15.588;2022-09-21T00:47:52;98244.69;;;2.45;82.27
73106;BME280;61559;50.476;15.588;2022-09-21T00:50:24;98244.13;;;2.45;82.02
73106;BME280;61559;50.476;15.588;2022-09-21T00:52:57;98241.27;;;2.43;82.16
73106;BME280;61559;50.476;15.588;2022-09-21T00:55:31;98241.73;;;2.42;82.40
73106;BME280;61559;50.476;15.588;2022-09-21T00:58:05;98240.84;;;2.35;82.26
73106;BME280;61559;50.476;15.588;2022-09-21T01:00:38;98242.48;;;2.25;82.49
73106;BME280;61559;50.476;15.588;2022-09-21T01:03:10;98245.39;;;2.19;82.57
73106;BME280;61559;50.476;15.588;2022-09-21T01:05:43;98246.39;;;2.16;82.76
73106;BME280;61559;50.476;15.588;2022-09-21T01:08:15;98248.94;;;2.18;82.82
73106;BME280;61559;50.476;15.588;2022-09-21T01:11:02;98251.38;;;2.18;82.59
73106;BME280;61559;50.476;15.588;2022-09-21T01:13:45;98247.50;;;2.20;82.75
73106;BME280;61559;50.476;15.588;2022-09-21T01:16:21;98250.73;;;2.22;82.82
73106;BME280;61559;50.476;15.588;2022-09-21T01:19:00;98251.70;;;2.22;82.81
73106;BME280;61559;50.476;15.588;2022-09-21T01:21:37;98246.54;;;2.16;82.88
73106;BME280;61559;50.476;15.588;2022-09-21T01:24:37;98252.25;;;2.15;82.73
73106;BME280;61559;50.476;15.588;2022-09-21T01:30:12;98250.50;;;2.06;82.78
73106;BME280;61559;50.476;15.588;2022-09-21T01:32:49;98254.94;;;2.04;83.06
73106;BME280;61559;50.476;15.588;2022-09-21T01:35:24;98256.65;;;2.03;83.13
73106;BME280;61559;50.476;15.588;2022-09-21T01:38:00;98260.17;;;2.04;83.09
73106;BME280;61559;50.476;15.588;2022-09-21T01:40:34;98255.30;;;2.04;83.16
73106;BME280;61559;50.476;15.588;2022-09-21T01:43:10;98260.52;;;2.06;82.94
73106;BME280;61559;50.476;15.588;2022-09-21T01:45:46;98259.46;;;2.08;82.91
73106;BME280;61559;50.476;15.588;2022-09-21T01:48:22;98260.91;;;2.09;82.61
73106;BME280;61559;50.476;15.588;2022-09-21T01:50:55;98260.18;;;2.12;82.92
73106;BME280;61559;50.476;15.588;2022-09-21T01:53:32;98261.80;;;2.14;83.05
73106;BME280;61559;50.476;15.588;2022-09-21T01:56:09;98260.02;;;2.18;82.92
73106;BME280;61559;50.476;15.588;2022-09-21T01:58:43;98261.64;;;2.22;82.99
73106;BME280;61559;50.476;15.588;2022-09-21T02:01:18;98257.45;;;2.23;83.03
73106;BME280;61559;50.476;15.588;2022-09-21T02:03:53;98260.73;;;2.25;83.11
73106;BME280;61559;50.476;15.588;2022-09-21T02:06:28;98259.43;;;2.26;83.21
73106;BME280;61559;50.476;15.588;2022-09-21T02:08:59;98262.02;;;2.30;83.45
73106;BME280;61559;50.476;15.588;2022-09-21T02:11:30;98268.35;;;2.36;83.56
73106;BME280;61559;50.476;15.588;2022-09-21T02:14:01;98268.56;;;2.41;83.72
73106;BME280;61559;50.476;15.588;2022-09-21T02:16:37;98262.40;;;2.47;83.79
73106;BME280;61559;50.476;15.588;2022-09-21T02:19:15;98262.45;;;2.54;83.76
73106;BME280;61559;50.476;15.588;2022-09-21T02:21:57;98262.35;;;2.60;83.74
73106;BME280;61559;50.476;15.588;2022-09-21T02:24:39;98266.20;;;2.64;83.52
73106;BME280;61559;50.476;15.588;2022-09-21T02:27:21;98264.15;;;2.67;83.59
73106;BME280;61559;50.476;15.588;2022-09-21T02:29:59;98261.67;;;2.68;83.61
73106;BME280;61559;50.476;15.588;2022-09-21T02:32:39;98263.95;;;2.72;83.74
73106;BME280;61559;50.476;15.588;2022-09-21T02:35:23;98269.65;;;2.72;83.98
73106;BME280;61559;50.476;15.588;2022-09-21T02:38:04;98263.44;;;2.75;84.08
73106;BME280;61559;50.476;15.588;2022-09-21T02:40:39;98265.07;;;2.80;84.03
73106;BME280;61559;50.476;15.588;2022-09-21T02:43:16;98265.44;;;2.85;84.07
73106;BME280;61559;50.476;15.588;2022-09-21T02:45:54;98259.17;;;2.89;84.07
73106;BME280;61559;50.476;15.588;2022-09-21T02:48:30;98261.58;;;2.94;84.01
73106;BME280;61559;50.476;15.588;2022-09-21T02:51:08;98259.21;;;2.97;84.12
73106;BME280;61559;50.476;15.588;2022-09-21T02:53:41;98265.91;;;3.00;84.23
73106;BME280;61559;50.476;15.588;2022-09-21T02:56:14;98269.88;;;3.04;84.42
73106;BME280;61559;50.476;15.588;2022-09-21T02:58:48;98268.12;;;3.10;84.75
73106;BME280;61559;50.476;15.588;2022-09-21T03:01:24;98264.58;;;3.18;84.64
73106;BME280;61559;50.476;15.588;2022-09-21T03:03:55;98270.92;;;3.26;84.57
73106;BME280;61559;50.476;15.588;2022-09-21T03:06:26;98272.56;;;3.32;84.62
73106;BME280;61559;50.476;15.588;2022-09-21T03:08:58;98278.69;;;3.38;84.46
73106;BME280;61559;50.476;15.588;2022-09-21T03:11:29;98278.27;;;3.42;84.48
73106;BME280;61559;50.476;15.588;2022-09-21T03:14:00;98281.09;;;3.46;84.35
73106;BME280;61559;50.476;15.588;2022-09-21T03:16:30;98287.17;;;3.50;84.33
73106;BME280;61559;50.476;15.588;2022-09-21T03:19:01;98287.11;;;3.55;84.26
73106;BME280;61559;50.476;15.588;2022-09-21T03:21:32;98285.83;;;3.58;84.21
73106;BME280;61559;50.476;15.588;2022-09-21T03:24:04;98287.85;;;3.62;84.16
73106;BME280;61559;50.476;15.588;2022-09-21T03:26:35;98285.89;;;3.66;84.22
73106;BME280;61559;50.476;15.588;2022-09-21T03:29:06;98286.20;;;3.67;84.23
73106;BME280;61559;50.476;15.588;2022-09-21T03:31:37;98286.73;;;3.61;84.27
73106;BME280;61559;50.476;15.588;2022-09-21T03:34:08;98289.59;;;3.57;84.29
73106;BME280;61559;50.476;15.588;2022-09-21T03:36:40;98287.39;;;3.57;84.28
73106;BME280;61559;50.476;15.588;2022-09-21T03:39:10;98286.39;;;3.59;84.42
73106;BME280;61559;50.476;15.588;2022-09-21T03:41:41;98293.13;;;3.60;84.52
73106;BME280;61559;50.476;15.588;2022-09-21T03:44:13;98293.48;;;3.66;84.68
73106;BME280;61559;50.476;15.588;2022-09-21T03:46:46;98296.80;;;3.72;84.55
73106;BME280;61559;50.476;15.588;2022-09-21T03:49:17;98290.45;;;3.75;84.65
73106;BME280;61559;50.476;15.588;2022-09-21T03:51:48;98296.26;;;3.80;84.78
73106;BME280;61559;50.476;15.588;2022-09-21T03:54:20;98295.54;;;3.85;84.66
73106;BME280;61559;50.476;15.588;2022-09-21T03:56:50;98295.42;;;3.91;84.61
73106;BME280;61559;50.476;15.588;2022-09-21T03:59:22;98297.70;;;3.94;84.49
73106;BME280;61559;50.476;15.588;2022-09-21T04:01:52;98304.21;;;4.00;84.55
73106;BME280;61559;50.476;15.588;2022-09-21T04:04:24;98295.44;;;4.05;84.47
73106;BME280;61559;50.476;15.588;2022-09-21T04:06:55;98302.66;;;4.12;84.58
73106;BME280;61559;50.476;15.588;2022-09-21T04:09:24;98301.50;;;4.18;84.41
73106;BME280;61559;50.476;15.588;2022-09-21T04:11:56;98306.71;;;4.21;84.41
73106;BME280;61559;50.476;15.588;2022-09-21T04:14:27;98308.94;;;4.25;84.41
73106;BME280;61559;50.476;15.588;2022-09-21T04:16:56;98306.67;;;4.29;84.45
73106;BME280;61559;50.476;15.588;2022-09-21T04:19:27;98305.45;;;4.29;84.34
73106;BME280;61559;50.476;15.588;2022-09-21T04:21:58;98309.98;;;4.33;84.26
73106;BME280;61559;50.476;15.588;2022-09-21T04:24:29;98308.63;;;4.37;84.20
73106;BME280;61559;50.476;15.588;2022-09-21T04:27:00;98313.37;;;4.37;84.29
73106;BME280;61559;50.476;15.588;2022-09-21T04:29:31;98312.05;;;4.38;84.28
73106;BME280;61559;50.476;15.588;2022-09-21T04:32:03;98316.21;;;4.41;84.49
73106;BME280;61559;50.476;15.588;2022-09-21T04:34:34;98315.51;;;4.44;84.35
73106;BME280;61559;50.476;15.588;2022-09-21T04:37:06;98314.60;;;4.45;84.31
73106;BME280;61559;50.476;15.588;2022-09-21T04:39:37;98317.91;;;4.53;84.40
73106;BME280;61559;50.476;15.588;2022-09-21T04:42:09;98319.77;;;4.58;84.30
73106;BME280;61559;50.476;15.588;2022-09-21T04:44:40;98319.49;;;4.63;84.34
73106;BME280;61559;50.476;15.588;2022-09-21T04:47:11;98323.40;;;4.68;84.21
73106;BME280;61559;50.476;15.588;2022-09-21T04:49:42;98322.35;;;4.71;84.22
73106;BME280;61559;50.476;15.588;2022-09-21T04:52:12;98321.04;;;4.75;84.14
73106;BME280;61559;50.476;15.588;2022-09-21T04:54:48;98327.04;;;4.80;84.13
73106;BME280;61559;50.476;15.588;2022-09-21T04:57:19;98324.25;;;4.83;84.15
73106;BME280;61559;50.476;15.588;2022-09-21T04:59:50;98325.85;;;4.87;84.06
73106;BME280;61559;50.476;15.588;2022-09-21T05:02:20;98328.00;;;4.90;84.07
73106;BME280;61559;50.476;15.588;2022-09-21T05:04:51;98332.66;;;4.92;84.07
73106;BME280;61559;50.476;15.588;2022-09-21T05:07:22;98334.20;;;4.94;84.06
73106;BME280;61559;50.476;15.588;2022-09-21T05:09:53;98336.46;;;4.98;84.15
73106;BME280;61559;50.476;15.588;2022-09-21T05:12:34;98335.41;;;5.00;84.14
73106;BME280;61559;50.476;15.588;2022-09-21T05:15:10;98339.08;;;5.01;84.10
73106;BME280;61559;50.476;15.588;2022-09-21T05:17:41;98342.39;;;5.00;84.06
73106;BME280;61559;50.476;15.588;2022-09-21T05:20:13;98346.87;;;4.97;84.09
73106;BME280;61559;50.476;15.588;2022-09-21T05:22:42;98346.19;;;4.92;84.20
73106;BME280;61559;50.476;15.588;2022-09-21T05:25:13;98344.80;;;4.91;84.15
73106;BME280;61559;50.476;15.588;2022-09-21T05:27:44;98346.59;;;4.90;84.19
73106;BME280;61559;50.476;15.588;2022-09-21T05:30:16;98347.66;;;4.91;84.21
73106;BME280;61559;50.476;15.588;2022-09-21T05:32:53;98354.05;;;4.92;84.18
73106;BME280;61559;50.476;15.588;2022-09-21T05:35:34;98356.26;;;4.95;84.19
73106;BME280;61559;50.476;15.588;2022-09-21T05:38:11;98355.70;;;4.95;84.15
73106;BME280;61559;50.476;15.588;2022-09-21T05:40:47;98362.46;;;4.99;84.08
73106;BME280;61559;50.476;15.588;2022-09-21T05:43:19;98361.45;;;5.03;84.12
73106;BME280;61559;50.476;15.588;2022-09-21T05:45:55;98361.94;;;5.07;83.86
73106;BME280;61559;50.476;15.588;2022-09-21T05:48:32;98363.73;;;5.12;83.79
73106;BME280;61559;50.476;15.588;2022-09-21T05:51:13;98367.65;;;5.16;83.73
73106;BME280;61559;50.476;15.588;2022-09-21T05:53:56;98363.60;;;5.22;83.67
73106;BME280;61559;50.476;15.588;2022-09-21T05:56:41;98370.52;;;5.28;83.58
73106;BME280;61559;50.476;15.588;2022-09-21T05:59:30;98377.48;;;5.34;83.72
73106;BME280;61559;50.476;15.588;2022-09-21T06:02:11;98383.89;;;5.39;83.60
73106;BME280;61559;50.476;15.588;2022-09-21T06:04:47;98379.82;;;5.43;83.28
73106;BME280;61559;50.476;15.588;2022-09-21T06:07:20;98378.14;;;5.46;83.38
73106;BME280;61559;50.476;15.588;2022-09-21T06:09:51;98378.77;;;5.52;83.56
73106;BME280;61559;50.476;15.588;2022-09-21T06:12:22;98377.47;;;5.58;83.69
73106;BME280;61559;50.476;15.588;2022-09-21T06:14:52;98377.08;;;5.65;83.59
73106;BME280;61559;50.476;15.588;2022-09-21T06:17:24;98377.70;;;5.72;83.55
73106;BME280;61559;50.476;15.588;2022-09-21T06:19:56;98373.94;;;5.79;83.55
73106;BME280;61559;50.476;15.588;2022-09-21T06:22:27;98376.86;;;5.84;83.15
73106;BME280;61559;50.476;15.588;2022-09-21T06:24:58;98376.79;;;5.90;83.34
73106;BME280;61559;50.476;15.588;2022-09-21T06:27:28;98376.04;;;5.98;83.38
73106;BME280;61559;50.476;15.588;2022-09-21T06:29:59;98375.01;;;6.08;83.56
73106;BME280;61559;50.476;15.588;2022-09-21T06:32:30;98379.77;;;6.21;83.89
73106;BME280;61559;50.476;15.588;2022-09-21T06:35:00;98374.85;;;6.35;84.06
73106;BME280;61559;50.476;15.588;2022-09-21T06:37:30;98376.98;;;6.53;84.30
73106;BME280;61559;50.476;15.588;2022-09-21T06:40:01;98382.60;;;6.69;84.42
73106;BME280;61559;50.476;15.588;2022-09-21T06:42:33;98380.72;;;6.87;84.51
73106;BME280;61559;50.476;15.588;2022-09-21T06:45:04;98381.47;;;7.04;84.52
73106;BME280;61559;50.476;15.588;2022-09-21T06:47:35;98379.45;;;7.23;84.59
73106;BME280;61559;50.476;15.588;2022-09-21T06:50:07;98384.40;;;7.42;84.49
73106;BME280;61559;50.476;15.588;2022-09-21T06:52:38;98384.58;;;7.61;84.28
73106;BME280;61559;50.476;15.588;2022-09-21T06:55:11;98384.05;;;7.78;84.41
73106;BME280;61559;50.476;15.588;2022-09-21T06:57:42;98399.00;;;7.98;84.24
73106;BME280;61559;50.476;15.588;2022-09-21T07:00:14;98398.63;;;8.14;84.07
73106;BME280;61559;50.476;15.588;2022-09-21T07:02:45;98395.94;;;8.25;83.68
73106;BME280;61559;50.476;15.588;2022-09-21T07:05:15;98394.65;;;8.34;83.47
73106;BME280;61559;50.476;15.588;2022-09-21T07:07:46;98393.95;;;8.45;83.53
73106;BME280;61559;50.476;15.588;2022-09-21T07:10:22;98396.24;;;8.60;83.60
73106;BME280;61559;50.476;15.588;2022-09-21T07:12:53;98399.64;;;8.74;83.78
73106;BME280;61559;50.476;15.588;2022-09-21T07:15:25;98408.50;;;8.87;83.74
73106;BME280;61559;50.476;15.588;2022-09-21T07:17:58;98407.66;;;8.99;83.57
73106;BME280;61559;50.476;15.588;2022-09-21T07:20:36;98409.33;;;9.11;83.36
73106;BME280;61559;50.476;15.588;2022-09-21T07:23:13;98409.70;;;9.19;83.00
73106;BME280;61559;50.476;15.588;2022-09-21T07:25:45;98407.30;;;9.27;82.94
73106;BME280;61559;50.476;15.588;2022-09-21T07:28:19;98401.13;;;9.32;82.90
73106;BME280;61559;50.476;15.588;2022-09-21T07:30:50;98400.42;;;9.34;82.71
73106;BME280;61559;50.476;15.588;2022-09-21T07:33:21;98403.63;;;9.33;82.38
73106;BME280;61559;50.476;15.588;2022-09-21T07:35:53;98406.85;;;9.30;82.23
73106;BME280;61559;50.476;15.588;2022-09-21T07:38:25;98405.54;;;9.28;82.39
73106;BME280;61559;50.476;15.588;2022-09-21T07:40:56;98410.79;;;9.28;81.84
73106;BME280;61559;50.476;15.588;2022-09-21T07:43:31;98409.92;;;9.27;81.71
73106;BME280;61559;50.476;15.588;2022-09-21T07:46:02;98411.88;;;9.26;81.87
73106;BME280;61559;50.476;15.588;2022-09-21T07:48:31;98412.48;;;9.32;82.18
73106;BME280;61559;50.476;15.588;2022-09-21T07:51:03;98413.64;;;9.39;82.14
73106;BME280;61559;50.476;15.588;2022-09-21T07:53:35;98417.04;;;9.50;81.83
73106;BME280;61559;50.476;15.588;2022-09-21T07:56:09;98413.17;;;9.62;81.52
73106;BME280;61559;50.476;15.588;2022-09-21T07:58:41;98410.71;;;9.73;81.11
73106;BME280;61559;50.476;15.588;2022-09-21T08:01:30;98415.98;;;9.87;80.99
73106;BME280;61559;50.476;15.588;2022-09-21T08:04:02;98414.39;;;10.02;80.39
73106;BME280;61559;50.476;15.588;2022-09-21T08:06:34;98418.88;;;10.21;80.45
73106;BME280;61559;50.476;15.588;2022-09-21T08:09:08;98424.16;;;10.41;79.98
73106;BME280;61559;50.476;15.588;2022-09-21T08:11:38;98419.14;;;10.65;80.38
73106;BME280;61559;50.476;15.588;2022-09-21T08:14:13;98413.70;;;10.86;80.92
73106;BME280;61559;50.476;15.588;2022-09-21T08:16:54;98415.06;;;11.11;80.62
73106;BME280;61559;50.476;15.588;2022-09-21T08:19:23;98418.61;;;11.32;80.00
73106;BME280;61559;50.476;15.588;2022-09-21T08:21:55;98415.02;;;11.49;80.10
73106;BME280;61559;50.476;15.588;2022-09-21T08:24:26;98415.30;;;11.68;79.36
73106;BME280;61559;50.476;15.588;2022-09-21T08:26:57;98416.11;;;11.84;77.35
73106;BME280;61559;50.476;15.588;2022-09-21T08:29:28;98418.21;;;12.00;77.44
73106;BME280;61559;50.476;15.588;2022-09-21T08:32:00;98416.77;;;12.15;77.75
73106;BME280;61559;50.476;15.588;2022-09-21T08:34:31;98417.88;;;12.29;77.19
73106;BME280;61559;50.476;15.588;2022-09-21T08:37:02;98417.81;;;12.42;76.76
73106;BME280;61559;50.476;15.588;2022-09-21T08:39:33;98417.13;;;12.55;75.87
73106;BME280;61559;50.476;15.588;2022-09-21T08:42:13;98418.17;;;12.62;74.98
73106;BME280;61559;50.476;15.588;2022-09-21T08:44:50;98419.19;;;12.73;74.59
73106;BME280;61559;50.476;15.588;2022-09-21T08:47:37;98417.48;;;12.79;72.72
73106;BME280;61559;50.476;15.588;2022-09-21T08:50:25;98419.11;;;12.82;72.42
73106;BME280;61559;50.476;15.588;2022-09-21T08:53:03;98413.84;;;12.91;72.45
73106;BME280;61559;50.476;15.588;2022-09-21T08:55:33;98409.94;;;12.97;71.31
73106;BME280;61559;50.476;15.588;2022-09-21T08:58:04;98408.48;;;13.08;71.05
73106;BME280;61559;50.476;15.588;2022-09-21T09:00:37;98414.27;;;13.21;71.08
73106;BME280;61559;50.476;15.588;2022-09-21T09:03:30;98414.04;;;13.37;70.26
73106;BME280;61559;50.476;15.588;2022-09-21T09:06:16;98416.19;;;13.49;68.02
73106;BME280;61559;50.476;15.588;2022-09-21T09:09:25;98419.46;;;13.51;66.54
73106;BME280;61559;50.476;15.588;2022-09-21T09:12:13;98422.23;;;13.42;64.28
73106;BME280;61559;50.476;15.588;2022-09-21T09:17:51;98415.60;;;13.19;65.61
73106;BME280;61559;50.476;15.588;2022-09-21T09:20:28;98419.48;;;13.11;64.58
73106;BME280;61559;50.476;15.588;2022-09-21T09:23:08;98422.30;;;13.03;65.31
73106;BME280;61559;50.476;15.588;2022-09-21T09:25:42;98421.11;;;13.02;65.18
73106;BME280;61559;50.476;15.588;2022-09-21T09:28:24;98419.27;;;13.05;65.69
73106;BME280;61559;50.476;15.588;2022-09-21T09:31:02;98417.83;;;13.15;65.71
73106;BME280;61559;50.476;15.588;2022-09-21T09:33:44;98416.96;;;13.25;65.34
73106;BME280;61559;50.476;15.588;2022-09-21T09:36:16;98421.95;;;13.26;64.55
73106;BME280;61559;50.476;15.588;2022-09-21T09:39:11;98417.80;;;13.20;63.59
73106;BME280;61559;50.476;15.588;2022-09-21T09:42:01;98413.06;;;13.13;64.26
73106;BME280;61559;50.476;15.588;2022-09-21T09:48:07;98418.95;;;13.00;63.18
73106;BME280;61559;50.476;15.588;2022-09-21T09:50:44;98416.11;;;12.92;63.58
73106;BME280;61559;50.476;15.588;2022-09-21T09:53:18;98423.65;;;12.90;64.49
73106;BME280;61559;50.476;15.588;2022-09-21T09:55:51;98422.28;;;12.88;64.89
73106;BME280;61559;50.476;15.588;2022-09-21T09:58:34;98426.52;;;12.84;65.63
73106;BME280;61559;50.476;15.588;2022-09-21T10:01:06;98434.41;;;12.82;65.39
73106;BME280;61559;50.476;15.588;2022-09-21T10:03:37;98429.49;;;12.78;65.40
73106;BME280;61559;50.476;15.588;2022-09-21T10:06:16;98429.27;;;12.75;65.42
73106;BME280;61559;50.476;15.588;2022-09-21T10:09:00;98426.41;;;12.74;66.03
73106;BME280;61559;50.476;15.588;2022-09-21T10:11:38;98426.00;;;12.71;66.11
73106;BME280;61559;50.476;15.588;2022-09-21T10:14:12;98417.52;;;12.73;66.67
73106;BME280;61559;50.476;15.588;2022-09-21T10:16:46;98417.73;;;12.79;66.60
73106;BME280;61559;50.476;15.588;2022-09-21T10:19:20;98406.42;;;12.87;66.40
73106;BME280;61559;50.476;15.588;2022-09-21T10:21:56;98405.64;;;12.95;67.35
73106;BME280;61559;50.476;15.588;2022-09-21T10:24:29;98408.33;;;12.97;66.64
73106;BME280;61559;50.476;15.588;2022-09-21T10:27:05;98410.33;;;13.01;66.89
73106;BME280;61559;50.476;15.588;2022-09-21T10:29:43;98411.73;;;12.98;65.64
73106;BME280;61559;50.476;15.588;2022-09-21T10:32:22;98409.30;;;12.90;65.65
73106;BME280;61559;50.476;15.588;2022-09-21T10:35:13;98407.23;;;12.84;66.45
73106;BME280;61559;50.476;15.588;2022-09-21T10:37:43;98403.40;;;12.84;67.10
73106;BME280;61559;50.476;15.588;2022-09-21T10:40:27;98403.52;;;12.84;66.35
73106;BME280;61559;50.476;15.588;2022-09-21T10:42:58;98400.59;;;12.87;66.07
73106;BME280;61559;50.476;15.588;2022-09-21T10:45:31;98403.10;;;12.92;63.55
73106;BME280;61559;50.476;15.588;2022-09-21T10:48:12;98395.79;;;12.98;64.59
73106;BME280;61559;50.476;15.588;2022-09-21T10:50:46;98398.59;;;13.10;63.09
73106;BME280;61559;50.476;15.588;2022-09-21T10:53:25;98407.09;;;13.23;62.57
73106;BME280;61559;50.476;15.588;2022-09-21T10:56:01;98402.25;;;13.31;62.95
73106;BME280;61559;50.476;15.588;2022-09-21T10:59:10;98406.59;;;13.42;61.09
73106;BME280;61559;50.476;15.588;2022-09-21T11:01:46;98408.14;;;13.37;60.07
73106;BME280;61559;50.476;15.588;2022-09-21T11:04:22;98406.61;;;13.18;60.96
73106;BME280;61559;50.476;15.588;2022-09-21T11:06:59;98404.35;;;12.95;61.79
73106;BME280;61559;50.476;15.588;2022-09-21T11:09:38;98409.80;;;12.72;64.06
73106;BME280;61559;50.476;15.588;2022-09-21T11:12:20;98411.16;;;12.48;65.29
73106;BME280;61559;50.476;15.588;2022-09-21T11:15:00;98413.95;;;12.36;66.44
73106;BME280;61559;50.476;15.588;2022-09-21T11:17:37;98408.73;;;12.32;67.36
73106;BME280;61559;50.476;15.588;2022-09-21T11:20:21;98407.23;;;12.29;67.76
73106;BME280;61559;50.476;15.588;2022-09-21T11:23:02;98404.09;;;12.33;68.22
73106;BME280;61559;50.476;15.588;2022-09-21T11:25:41;98404.67;;;12.41;67.85
73106;BME280;61559;50.476;15.588;2022-09-21T11:28:18;98401.54;;;12.49;68.54
73106;BME280;61559;50.476;15.588;2022-09-21T11:31:03;98408.17;;;12.63;68.84
73106;BME280;61559;50.476;15.588;2022-09-21T11:33:48;98405.41;;;12.72;68.38
73106;BME280;61559;50.476;15.588;2022-09-21T11:36:31;98404.61;;;12.75;68.09
73106;BME280;61559;50.476;15.588;2022-09-21T11:39:12;98408.70;;;12.73;69.30
73106;BME280;61559;50.476;15.588;2022-09-21T11:41:54;98410.96;;;12.63;67.18
73106;BME280;61559;50.476;15.588;2022-09-21T11:44:48;98409.43;;;12.39;65.42
73106;BME280;61559;50.476;15.588;2022-09-21T11:50:33;98408.39;;;11.93;69.62
73106;BME280;61559;50.476;15.588;2022-09-21T11:53:19;98403.44;;;11.86;71.67
73106;BME280;61559;50.476;15.588;2022-09-21T11:59:08;98401.13;;;11.86;72.73
73106;BME280;61559;50.476;15.588;2022-09-21T12:01:54;98400.08;;;11.91;74.31
73106;BME280;61559;50.476;15.588;2022-09-21T12:04:45;98398.98;;;11.99;75.36
73106;BME280;61559;50.476;15.588;2022-09-21T12:07:27;98396.77;;;12.07;76.00
73106;BME280;61559;50.476;15.588;2022-09-21T12:10:26;98394.37;;;12.12;75.12
73106;BME280;61559;50.476;15.588;2022-09-21T12:13:07;98391.23;;;12.18;75.47
73106;BME280;61559;50.476;15.588;2022-09-21T12:15:44;98393.81;;;12.20;75.53
73106;BME280;61559;50.476;15.588;2022-09-21T12:18:26;98391.00;;;12.21;74.89
73106;BME280;61559;50.476;15.588;2022-09-21T12:21:03;98388.89;;;12.23;74.57
73106;BME280;61559;50.476;15.588;2022-09-21T12:23:43;98382.53;;;12.27;74.66
73106;BME280;61559;50.476;15.588;2022-09-21T12:26:31;98381.48;;;12.36;74.60
73106;BME280;61559;50.476;15.588;2022-09-21T12:29:06;98380.75;;;12.56;74.56
73106;BME280;61559;50.476;15.588;2022-09-21T12:31:46;98376.89;;;12.79;75.04
73106;BME280;61559;50.476;15.588;2022-09-21T12:34:23;98373.15;;;12.97;74.63
73106;BME280;61559;50.476;15.588;2022-09-21T12:37:03;98373.86;;;13.08;73.02
73106;BME280;61559;50.476;15.588;2022-09-21T12:39:41;98369.55;;;13.13;72.19
73106;BME280;61559;50.476;15.588;2022-09-21T12:42:24;98373.79;;;13.18;73.02
73106;BME280;61559;50.476;15.588;2022-09-21T12:44:59;98377.15;;;13.24;73.21
73106;BME280;61559;50.476;15.588;2022-09-21T12:47:44;98377.03;;;13.26;73.57
73106;BME280;61559;50.476;15.588;2022-09-21T12:50:21;98377.95;;;13.28;73.88
73106;BME280;61559;50.476;15.588;2022-09-21T12:52:57;98373.73;;;13.20;72.13
73106;BME280;61559;50.476;15.588;2022-09-21T12:55:37;98373.01;;;13.09;72.12
73106;BME280;61559;50.476;15.588;2022-09-21T12:58:25;98371.11;;;13.04;73.07
73106;BME280;61559;50.476;15.588;2022-09-21T13:01:07;98369.89;;;12.99;73.55
73106;BME280;61559;50.476;15.588;2022-09-21T13:03:51;98369.04;;;12.93;74.24
73106;BME280;61559;50.476;15.588;2022-09-21T13:06:42;98368.25;;;12.86;74.21
73106;BME280;61559;50.476;15.588;2022-09-21T13:09:18;98369.13;;;12.77;74.22
73106;BME280;61559;50.476;15.588;2022-09-21T13:11:54;98367.71;;;12.73;74.61
73106;BME280;61559;50.476;15.588;2022-09-21T13:14:28;98370.27;;;12.72;74.94
73106;BME280;61559;50.476;15.588;2022-09-21T13:17:04;98361.16;;;12.70;75.00
73106;BME280;61559;50.476;15.588;2022-09-21T13:19:36;98362.89;;;12.69;75.23
73106;BME280;61559;50.476;15.588;2022-09-21T13:22:22;98361.63;;;12.66;75.25
73106;BME280;61559;50.476;15.588;2022-09-21T13:25:03;98359.05;;;12.60;75.33
73106;BME280;61559;50.476;15.588;2022-09-21T13:28:02;98362.94;;;12.53;75.57
73106;BME280;61559;50.476;15.588;2022-09-21T13:30:37;98360.65;;;12.50;75.43
73106;BME280;61559;50.476;15.588;2022-09-21T13:33:30;98362.48;;;12.51;73.19
73106;BME280;61559;50.476;15.588;2022-09-21T13:36:06;98358.39;;;12.55;73.39
73106;BME280;61559;50.476;15.588;2022-09-21T13:39:10;98356.68;;;12.59;74.19
73106;BME280;61559;50.476;15.588;2022-09-21T13:41:43;98354.05;;;12.71;75.34
73106;BME280;61559;50.476;15.588;2022-09-21T13:44:43;98352.23;;;12.83;75.46
73106;BME280;61559;50.476;15.588;2022-09-21T13:47:13;98356.23;;;12.99;75.19
73106;BME280;61559;50.476;15.588;2022-09-21T13:49:58;98349.75;;;13.13;72.54
73106;BME280;61559;50.476;15.588;2022-09-21T13:52:37;98350.85;;;13.19;69.17
73106;BME280;61559;50.476;15.588;2022-09-21T13:55:26;98347.23;;;13.21;68.32
73106;BME280;61559;50.476;15.588;2022-09-21T13:58:01;98345.98;;;13.19;68.18